Another Hard Day at the Office Weather Stats

 
 
 

High monthly outside Temperature, 23.7 , C
Low monthly outside Temperature, 3.1 , C
High yearly outside Temperature, 23.7 , C
Low yearly outside Temperature, -2.4 , C

Low monthly barometer, 1011.1 , mb
High monthly barometer, 1037.2 , mb
Low yearly barometer, 975.0 , mb
High yearly barometer 1041.1 , mb

High wind speed, 17.0 , mph
Time of High wind speed, 0:33 , mph
High monthly wind speed, 33.0 , mph
High yearly wind speed, 55.0 , mph

 

 




3125
                    Temp     Hi    Low   Out    Dew  Wind  Wind   Wind    Hi    Hi   Wind   Heat    THW                Rain    Heat    Cool    In     In    In     In     In   In Air  Wind  Wind    ISS   Arc.
  Date    Time     Out   Temp   Temp   Hum    Pt. Speed   Dir    Run Speed   Dir  Chill  Index  Index   Bar    Rain  Rate    D-D     D-D    Temp   Hum    Dew   Heat    EMC Density  Samp   Tx   Recept  Int.
---------------------------------------------------------------------------------------------------------------------------------------------------------------------------------------------------------------
17/04/15   0:05   10.2   10.2   10.2    72    5.3   8.0    NE   0.67  13.0   ENE    8.3   10.0    8.1  1013.0  0.00   0.0   0.028   0.000   26.9    35   10.2   26.1   6.83 1.1621    116    1    100.0    5 
17/04/15   0:10   10.2   10.2   10.2    72    5.3   8.0   NNE   0.67  15.0   NNE    8.3   10.0    8.1  1013.0  0.00   0.0   0.028   0.000   26.9    35   10.1   26.1   6.83 1.1624    116    1    100.0    5 
17/04/15   0:15   10.2   10.2   10.2    72    5.3   6.0   NNE   0.50  13.0    NE    8.9   10.0    8.8  1013.1  0.00   0.0   0.028   0.000   26.9    35   10.1   26.1   6.83 1.1625    116    1    100.0    5 
17/04/15   0:20   10.2   10.2   10.2    72    5.3   6.0    NE   0.50  13.0     E    8.9   10.0    8.8  1013.0  0.00   0.0   0.028   0.000   26.8    35   10.1   26.0   6.84 1.1627    117    1    100.0    5 
17/04/15   0:25   10.2   10.2   10.2    72    5.3   6.0    NE   0.50  12.0   NNE    8.9   10.0    8.8  1013.0  0.00   0.0   0.028   0.000   26.8    36   10.5   26.1   6.94 1.1622    116    1    100.0    5 
17/04/15   0:30   10.2   10.2   10.2    72    5.3   5.0    NE   0.42  13.0    NE    9.2   10.0    9.1  1013.1  0.00   0.0   0.028   0.000   26.8    36   10.5   26.1   6.94 1.1623    117    1    100.0    5 
17/04/15   0:35   10.1   10.2   10.1    72    5.3   6.0   NNE   0.50  11.0   ENE    8.8    9.9    8.7  1013.1  0.00   0.0   0.029   0.000   26.8    36   10.5   26.0   6.94 1.1626    117    1    100.0    5 
17/04/15   0:40   10.1   10.1   10.1    72    5.2   7.0   NNE   0.58  13.0    NE    8.5    9.9    8.3  1013.1  0.00   0.0   0.029   0.000   26.7    36   10.4   25.9   6.95 1.1629    118    1    100.0    5 
17/04/15   0:45    9.9   10.0    9.9    72    5.1   7.0   NNE   0.58  11.0    NE    8.4    9.8    8.2  1013.2  0.00   0.0   0.029   0.000   26.7    35   10.0   25.9   6.85 1.1634    117    1    100.0    5 
17/04/15   0:50    9.9    9.9    9.9    73    5.3   6.0   NNE   0.50  10.0   NNE    8.6    9.7    8.4  1013.2  0.00   0.0   0.029   0.000   26.7    35    9.9   25.8   6.85 1.1637    117    1    100.0    5 
17/04/15   0:55    9.8    9.9    9.8    73    5.2   7.0    NE   0.58  12.0   NNE    8.2    9.6    8.0  1013.2  0.00   0.0   0.030   0.000   26.7    35    9.9   25.8   6.85 1.1637    117    1    100.0    5 
17/04/15   1:00    9.7    9.8    9.7    73    5.1   7.0   NNE   0.58  11.0   ENE    8.1    9.5    7.9  1013.3  0.00   0.0   0.030   0.000   26.6    35    9.9   25.8   6.85 1.1641    117    1    100.0    5 
17/04/15   1:05    9.6    9.7    9.6    74    5.2   7.0   NNE   0.58  12.0   NNE    8.0    9.4    7.8  1013.3  0.00   0.0   0.030   0.000   26.6    35    9.9   25.8   6.85 1.1641    117    1    100.0    5 
17/04/15   1:10    9.6    9.6    9.5    74    5.1   9.0   NNE   0.75  16.0   NNE    7.2    9.4    7.0  1013.3  0.00   0.0   0.030   0.000   26.6    35    9.8   25.8   6.85 1.1643    116    1    100.0    5 
17/04/15   1:15    9.5    9.6    9.5    74    5.1   7.0   NNE   0.58  13.0    NE    7.8    9.3    7.7  1013.3  0.00   0.0   0.031   0.000   26.5    35    9.8   25.7   6.86 1.1646    116    1    100.0    5 
17/04/15   1:20    9.4    9.5    9.4    74    5.0   9.0   NNE   0.75  14.0    NE    7.1    9.3    6.9  1013.3  0.00   0.0   0.031   0.000   26.5    35    9.8   25.7   6.86 1.1646    116    1    100.0    5 
17/04/15   1:25    9.4    9.5    9.4    74    5.0   8.0   NNE   0.67  15.0   NNE    7.4    9.3    7.2  1013.3  0.00   0.0   0.031   0.000   26.4    35    9.7   25.7   6.86 1.1649    116    1    100.0    5 
17/04/15   1:30    9.4    9.4    9.4    74    5.0   9.0   NNE   0.75  18.0    NE    7.0    9.2    6.8  1013.2  0.00   0.0   0.031   0.000   26.4    35    9.7   25.7   6.86 1.1648    117    1    100.0    5 
17/04/15   1:35    9.3    9.4    9.3    75    5.1   8.0   NNE   0.67  15.0   NNE    7.3    9.2    7.1  1013.1  0.00   0.0   0.031   0.000   26.4    35    9.7   25.7   6.86 1.1649    117    1    100.0    5 
17/04/15   1:40    9.3    9.3    9.3    75    5.1   8.0   NNE   0.67  15.0   NNE    7.3    9.2    7.1  1013.2  0.00   0.0   0.031   0.000   26.3    35    9.6   25.6   6.86 1.1652    118    1    100.0    5 
17/04/15   1:45    9.3    9.3    9.3    75    5.1   8.0   NNE   0.67  13.0   NNE    7.2    9.1    7.0  1013.3  0.00   0.0   0.031   0.000   26.3    35    9.6   25.6   6.86 1.1656    116    1    100.0    5 
17/04/15   1:50    9.3    9.3    9.3    75    5.1   8.0   NNE   0.67  14.0    NE    7.2    9.1    7.0  1013.3  0.00   0.0   0.031   0.000   26.3    35    9.6   25.6   6.86 1.1657    114    1    100.0    5 
17/04/15   1:55    9.3    9.3    9.3    75    5.1   9.0   NNE   0.75  16.0   NNE    6.8    9.1    6.7  1013.4  0.00   0.0   0.031   0.000   26.3    35    9.6   25.6   6.86 1.1657    116    1    100.0    5 
17/04/15   2:00    9.3    9.3    9.3    75    5.1   9.0   NNE   0.75  15.0    NE    6.8    9.1    6.7  1013.3  0.00   0.0   0.031   0.000   26.2    35    9.5   25.5   6.87 1.1659    117    1    100.0    5 
17/04/15   2:05    9.3    9.3    9.3    75    5.1   9.0   NNE   0.75  17.0     N    6.8    9.1    6.7  1013.4  0.00   0.0   0.031   0.000   26.2    35    9.5   25.5   6.87 1.1663    117    1    100.0    5 
17/04/15   2:10    9.3    9.3    9.3    75    5.1   8.0    NE   0.67  16.0    NE    7.3    9.2    7.1  1013.3  0.00   0.0   0.031   0.000   26.2    35    9.5   25.5   6.87 1.1662    115    1    100.0    5 
17/04/15   2:15    9.3    9.3    9.3    74    4.9   8.0    NE   0.67  14.0   ENE    7.3    9.2    7.1  1013.3  0.00   0.0   0.031   0.000   26.1    35    9.4   25.4   6.87 1.1664    115    1    100.0    5 
17/04/15   2:20    9.3    9.3    9.3    74    4.9  10.0   NNE   0.83  16.0   NNE    6.6    9.2    6.4  1013.4  0.00   0.0   0.031   0.000   26.1    35    9.4   25.4   6.87 1.1668    117    1    100.0    5 
17/04/15   2:25    9.3    9.3    9.3    75    5.1   9.0   NNE   0.75  13.0   NNE    6.8    9.1    6.7  1013.5  0.00   0.0   0.031   0.000   26.1    35    9.4   25.4   6.87 1.1669    116    1    100.0    5 
17/04/15   2:30    9.3    9.3    9.3    74    4.9   6.0    NE   0.50  12.0   NNE    7.8    9.1    7.7  1013.5  0.00   0.0   0.031   0.000   26.0    35    9.3   25.3   6.87 1.1672    116    1    100.0    5 
17/04/15   2:35    9.2    9.3    9.2    75    5.0   8.0   NNE   0.67  14.0   NNE    7.1    9.1    6.9  1013.5  0.00   0.0   0.032   0.000   26.0    35    9.3   25.3   6.87 1.1672    116    1    100.0    5 
17/04/15   2:40    9.2    9.2    9.2    75    5.0  10.0   NNE   0.83  17.0   NNE    6.4    9.0    6.3  1013.5  0.00   0.0   0.032   0.000   25.9    35    9.3   25.3   6.88 1.1675    117    1    100.0    5 
17/04/15   2:45    9.2    9.2    9.1    75    5.0   8.0    NE   0.67  14.0   ENE    7.1    9.0    6.9  1013.4  0.00   0.0   0.032   0.000   25.9    35    9.3   25.2   6.88 1.1676    118    1    100.0    5 
17/04/15   2:50    9.1    9.2    9.1    75    4.9   9.0    NE   0.75  19.0   ENE    6.7    8.9    6.5  1013.4  0.00   0.0   0.032   0.000   25.9    35    9.3   25.2   6.88 1.1676    116    1    100.0    5 
17/04/15   2:55    9.1    9.1    9.1    75    4.9  10.0    NE   0.83  15.0   NNE    6.3    8.9    6.1  1013.3  0.00   0.0   0.032   0.000   25.9    35    9.3   25.2   6.88 1.1675    115    1    100.0    5 
17/04/15   3:00    9.1    9.1    9.1    75    4.9   7.0    NE   0.58  15.0   NNE    7.3    8.9    7.2  1013.3  0.00   0.0   0.032   0.000   25.8    35    9.2   25.2   6.88 1.1677    114    1    100.0    5 
17/04/15   3:05    9.1    9.1    9.1    76    5.0   7.0    NE   0.58  15.0    NE    7.3    8.9    7.2  1013.4  0.00   0.0   0.032   0.000   25.8    35    9.2   25.1   6.88 1.1682    117    1    100.0    5 
17/04/15   3:10    9.1    9.1    9.0    76    5.0   7.0    NE   0.58  13.0    NE    7.3    8.9    7.2  1013.4  0.00   0.0   0.032   0.000   25.8    35    9.2   25.1   6.88 1.1681    117    1    100.0    5 
17/04/15   3:15    9.1    9.1    9.1    76    5.0   5.0    NE   0.42  11.0    NE    7.9    8.9    7.7  1013.6  0.00   0.0   0.032   0.000   25.7    35    9.1   25.0   6.88 1.1686    115    1    100.0    5 
17/04/15   3:20    9.1    9.1    9.1    76    5.0   6.0   NNE   0.50  10.0    NE    7.6    8.9    7.4  1013.7  0.00   0.0   0.032   0.000   25.7    35    9.1   25.0   6.88 1.1687    116    1    100.0    5 
17/04/15   3:25    9.1    9.1    9.0    76    5.0   4.0    NE   0.33  12.0   ENE    8.3    8.9    8.1  1013.8  0.00   0.0   0.032   0.000   25.7    35    9.1   24.9   6.89 1.1691    115    1    100.0    5 
17/04/15   3:30    9.1    9.1    9.1    76    5.0   6.0   NNE   0.50  11.0   NNE    7.6    8.9    7.4  1013.8  0.00   0.0   0.032   0.000   25.7    35    9.1   24.9   6.89 1.1691    117    1    100.0    5 
17/04/15   3:35    9.0    9.1    9.0    76    5.0   5.0    NE   0.42   8.0   ENE    7.8    8.8    7.7  1013.8  0.00   0.0   0.032   0.000   25.6    35    9.0   24.9   6.89 1.1693    117    1    100.0    5 
17/04/15   3:40    9.1    9.1    9.0    76    5.0   6.0   NNE   0.50  13.0   NNE    7.6    8.9    7.4  1013.9  0.00   0.0   0.032   0.000   25.6    35    9.0   24.9   6.89 1.1695    117    1    100.0    5 
17/04/15   3:45    9.0    9.1    9.0    76    5.0   8.0    NE   0.67  12.0   NNE    6.8    8.8    6.7  1014.0  0.00   0.0   0.032   0.000   25.6    35    9.0   24.8   6.89 1.1698    117    1    100.0    5 
17/04/15   3:50    9.0    9.0    9.0    76    5.0   8.0    NE   0.67  15.0   NNE    6.8    8.8    6.7  1014.0  0.00   0.0   0.032   0.000   25.5    35    8.9   24.8   6.89 1.1701    117    1    100.0    5 
17/04/15   3:55    8.9    9.0    8.9    76    4.9   8.0    NE   0.67  17.0    NE    6.8    8.8    6.6  1014.0  0.00   0.0   0.033   0.000   25.5    35    8.9   24.8   6.89 1.1701    117    1    100.0    5 
17/04/15   4:00    8.9    8.9    8.9    76    4.9   6.0    NE   0.50  15.0   ENE    7.4    8.8    7.3  1014.1  0.00   0.0   0.033   0.000   25.4    35    8.9   24.8   6.89 1.1704    116    1    100.0    5 
17/04/15   4:05    8.9    8.9    8.9    76    4.9  10.0    NE   0.83  20.0    NE    6.2    8.8    6.0  1014.1  0.00   0.0   0.033   0.000   25.4    35    8.9   24.8   6.89 1.1704    117    1    100.0    5 
17/04/15   4:10    8.9    8.9    8.9    76    4.9   9.0   NNE   0.75  15.0   ENE    6.4    8.7    6.2  1014.0  0.00   0.0   0.033   0.000   25.4    35    8.8   24.7   6.90 1.1707    115    1    100.0    5 
17/04/15   4:15    8.9    8.9    8.9    77    5.1   9.0   NNE   0.75  18.0   NNE    6.4    8.8    6.3  1014.1  0.00   0.0   0.033   0.000   25.4    35    8.8   24.7   6.90 1.1707    117    1    100.0    5 
17/04/15   4:20    8.9    8.9    8.9    77    5.1   8.0    NE   0.67  15.0   NNE    6.7    8.8    6.6  1014.2  0.00   0.0   0.033   0.000   25.3    35    8.8   24.7   6.90 1.1711    117    1    100.0    5 
17/04/15   4:25    8.9    8.9    8.9    77    5.1  10.0    NE   0.83  16.0   NNE    6.1    8.8    6.0  1014.3  0.00   0.0   0.033   0.000   25.3    35    8.7   24.6   6.90 1.1715    116    1    100.0    5 
17/04/15   4:30    8.9    8.9    8.9    77    5.1   8.0    NE   0.67  16.0   NNE    6.7    8.8    6.6  1014.3  0.00   0.0   0.033   0.000   25.3    35    8.7   24.6   6.90 1.1715    117    1    100.0    5 
17/04/15   4:35    8.9    8.9    8.9    76    4.9   8.0    NE   0.67  16.0   NNE    6.7    8.7    6.6  1014.3  0.00   0.0   0.033   0.000   25.3    35    8.7   24.6   6.90 1.1715    117    1    100.0    5 
17/04/15   4:40    8.9    8.9    8.9    76    4.9   7.0    NE   0.58  14.0     E    7.2    8.8    7.0  1014.3  0.00   0.0   0.033   0.000   25.2    36    9.1   24.6   7.00 1.1714    117    1    100.0    5 
17/04/15   4:45    8.9    9.0    8.9    76    4.9   7.0    NE   0.58  14.0   ENE    7.2    8.8    7.0  1014.4  0.00   0.0   0.033   0.000   25.2    36    9.1   24.6   7.00 1.1715    115    1    100.0    5 
17/04/15   4:50    9.0    9.0    8.9    76    5.0   7.0    NE   0.58  12.0    NE    7.2    8.8    7.1  1014.5  0.00   0.0   0.032   0.000   25.2    36    9.0   24.6   7.00 1.1718    116    1    100.0    5 
17/04/15   4:55    9.1    9.1    9.1    76    5.1   8.0    NE   0.67  18.0   ENE    7.0    8.9    6.8  1014.6  0.00   0.0   0.032   0.000   25.2    36    9.0   24.6   7.00 1.1720    118    1    100.0    5 
17/04/15   5:00    9.2    9.2    9.1    75    5.0   7.0    NE   0.58  18.0    NE    7.4    9.0    7.3  1014.7  0.00   0.0   0.032   0.000   25.1    36    9.0   24.6   7.01 1.1723    116    1    100.0    5 
17/04/15   5:05    9.2    9.2    9.2    75    5.0   8.0    NE   0.67  14.0    NE    7.1    9.1    6.9  1014.8  0.00   0.0   0.032   0.000   25.1    36    8.9   24.5   7.01 1.1727    117    1    100.0    5 
17/04/15   5:10    9.3    9.3    9.2    74    4.9   7.0    NE   0.58  15.0   ENE    7.6    9.1    7.4  1014.7  0.00   0.0   0.031   0.000   25.1    36    8.9   24.5   7.01 1.1727    117    1    100.0    5 
17/04/15   5:15    9.3    9.3    9.3    74    4.9   9.0    NE   0.75  15.0   ENE    6.9    9.2    6.8  1014.8  0.00   0.0   0.031   0.000   25.1    36    8.9   24.5   7.01 1.1727    117    1    100.0    5 
17/04/15   5:20    9.4    9.4    9.3    74    5.0   9.0    NE   0.75  16.0   ENE    7.0    9.2    6.8  1014.8  0.00   0.0   0.031   0.000   25.0    36    8.9   24.4   7.01 1.1730    114    1    100.0    5 
17/04/15   5:25    9.4    9.4    9.4    74    5.0   8.0    NE   0.67  18.0    NE    7.3    9.2    7.2  1015.0  0.00   0.0   0.031   0.000   25.0    36    8.9   24.4   7.01 1.1732    115    1    100.0    5 
17/04/15   5:30    9.4    9.4    9.4    73    4.8   9.0    NE   0.75  16.0    NE    7.1    9.3    6.9  1015.2  0.00   0.0   0.031   0.000   24.9    36    8.8   24.4   7.01 1.1737    117    1    100.0    5 
17/04/15   5:35    9.4    9.4    9.4    73    4.8   8.0    NE   0.67  15.0    NE    7.4    9.3    7.2  1015.2  0.00   0.0   0.031   0.000   24.9    36    8.8   24.4   7.01 1.1738    117    1    100.0    5 
17/04/15   5:40    9.4    9.5    9.4    73    4.8   7.0    NE   0.58  13.0   NNE    7.8    9.3    7.6  1015.2  0.00   0.0   0.031   0.000   24.9    36    8.8   24.4   7.01 1.1737    117    1    100.0    5 
17/04/15   5:45    9.5    9.5    9.4    73    4.9   5.0   ENE   0.42  10.0    NE    8.4    9.3    8.2  1015.2  0.00   0.0   0.031   0.000   24.9    36    8.8   24.4   7.01 1.1737    116    1    100.0    5 
17/04/15   5:50    9.5    9.5    9.5    73    4.9   7.0   ENE   0.58  15.0   ENE    7.8    9.3    7.7  1015.3  0.00   0.0   0.031   0.000   24.9    36    8.8   24.3   7.01 1.1741    116    1    100.0    5 
17/04/15   5:55    9.5    9.6    9.5    73    4.9   7.0   ENE   0.58  16.0    NE    7.8    9.3    7.7  1015.3  0.00   0.0   0.031   0.000   24.9    36    8.8   24.3   7.01 1.1742    116    1    100.0    5 
17/04/15   6:00    9.6    9.6    9.6    72    4.8   7.0    NE   0.58  15.0   ENE    7.9    9.3    7.7  1015.5  0.00   0.0   0.030   0.000   24.9    36    8.8   24.3   7.01 1.1744    118    1    100.0    5 
17/04/15   6:05    9.6    9.6    9.6    71    4.6   8.0    NE   0.67  16.0    NE    7.6    9.4    7.4  1015.6  0.00   0.0   0.030   0.000   24.8    36    8.7   24.3   7.02 1.1747    116    1    100.0    5 
17/04/15   6:10    9.7    9.7    9.6    71    4.7   8.0    NE   0.67  19.0   ENE    7.7    9.4    7.4  1015.7  0.00   0.0   0.030   0.000   24.8    36    8.7   24.3   7.02 1.1749    117    1    100.0    5 
17/04/15   6:15    9.7    9.7    9.7    70    4.5   9.0    NE   0.75  14.0   NNE    7.4    9.5    7.2  1015.8  0.00   0.0   0.030   0.000   24.8    36    8.7   24.2   7.02 1.1752    116    1    100.0    5 
17/04/15   6:20    9.8    9.8    9.7    70    4.6   7.0    NE   0.58  13.0   NNE    8.2    9.6    8.0  1015.8  0.00   0.0   0.030   0.000   24.8    36    8.7   24.2   7.02 1.1752    116    1    100.0    5 
17/04/15   6:25   10.1   10.1    9.8    70    4.8   6.0    NE   0.50  12.0    NE    8.8    9.8    8.6  1015.8  0.00   0.0   0.029   0.000   24.8    36    8.7   24.2   7.02 1.1752    116    1    100.0    5 
17/04/15   6:30   10.3   10.3   10.1    69    4.8   7.0    NE   0.58  17.0     E    8.8   10.0    8.5  1015.7  0.00   0.0   0.028   0.000   24.8    36    8.7   24.2   7.02 1.1752    116    1    100.0    5 
17/04/15   6:35   10.3   10.3   10.3    67    4.5   8.0    NE   0.67  16.0    NE    8.4   10.0    8.1  1015.8  0.00   0.0   0.028   0.000   24.7    36    8.6   24.1   7.02 1.1755    116    1    100.0    5 
17/04/15   6:40   10.3   10.3   10.3    67    4.5   9.0    NE   0.75  20.0   NNE    8.1   10.0    7.8  1015.9  0.00   0.0   0.028   0.000   24.7    36    8.6   24.1   7.02 1.1756    116    1    100.0    5 
17/04/15   6:45   10.4   10.4   10.3    67    4.5   8.0    NE   0.67  16.0   NNE    8.5   10.1    8.2  1016.0  0.00   0.0   0.028   0.000   24.7    36    8.6   24.1   7.02 1.1757    116    1    100.0    5 
17/04/15   6:50   10.6   10.6   10.4    66    4.5   8.0    NE   0.67  16.0    NE    8.7   10.2    8.3  1016.1  0.00   0.0   0.027   0.000   24.7    36    8.6   24.1   7.02 1.1758    116    1    100.0    5 
17/04/15   6:55   10.6   10.6   10.6    65    4.3   9.0   ENE   0.75  18.0   ENE    8.4   10.2    8.1  1016.0  0.00   0.0   0.027   0.000   24.7    36    8.6   24.1   7.02 1.1758    117    1    100.0    5 
17/04/15   7:00   10.7   10.7   10.6    65    4.4   7.0   ENE   0.58  15.0   ENE    9.3   10.3    8.9  1016.1  0.00   0.0   0.026   0.000   24.7    36    8.6   24.1   7.02 1.1761    118    1    100.0    5 
17/04/15   7:05   10.8   10.8   10.7    64    4.2   9.0    NE   0.75  18.0   ENE    8.6   10.3    8.2  1016.1  0.00   0.0   0.026   0.000   24.7    36    8.6   24.1   7.02 1.1761    117    1    100.0    5 
17/04/15   7:10   10.9   10.9   10.8    64    4.3   8.0   ENE   0.67  17.0   ENE    9.1   10.4    8.7  1016.2  0.00   0.0   0.026   0.000   24.7    36    8.6   24.1   7.02 1.1763    116    1    100.0    5 
17/04/15   7:15   10.8   10.9   10.8    64    4.3   9.0    NE   0.75  16.0    NE    8.7   10.4    8.3  1016.2  0.00   0.0   0.026   0.000   24.7    36    8.6   24.1   7.02 1.1762    116    1    100.0    5 
17/04/15   7:20   10.8   10.8   10.8    65    4.5   9.0    NE   0.75  15.0    NE    8.7   10.4    8.3  1016.4  0.00   0.0   0.026   0.000   24.7    36    8.6   24.1   7.02 1.1765    117    1    100.0    5 
17/04/15   7:25   11.0   11.0   10.8    65    4.7   6.0    NE   0.50  12.0   ENE    9.9   10.6    9.4  1016.4  0.00   0.0   0.025   0.000   24.7    36    8.6   24.1   7.02 1.1765    116    1    100.0    5 
17/04/15   7:30   11.5   11.5   11.0    64    4.9  10.0    NE   0.83  16.0    NE    9.1   11.0    8.6  1016.4  0.00   0.0   0.024   0.000   24.7    36    8.6   24.1   7.02 1.1765    117    1    100.0    5 
17/04/15   7:35   11.9   11.9   11.5    61    4.6  10.0    NE   0.83  18.0   NNE    9.6   11.3    9.0  1016.5  0.00   0.0   0.022   0.000   24.7    37    9.0   24.1   7.22 1.1762    116    1    100.0    5 
17/04/15   7:40   12.3   12.3   11.9    59    4.5  13.0    NE   1.08  22.0    NE    9.2   11.6    8.5  1016.5  0.00   0.0   0.021   0.000   24.7    37    9.0   24.1   7.22 1.1762    117    1    100.0    5 
17/04/15   7:45   12.9   12.9   12.3    58    4.8  10.0   ENE   0.83  18.0   ENE   10.7   12.1    9.9  1016.5  0.00   0.0   0.019   0.000   24.7    37    9.0   24.2   7.22 1.1760    117    1    100.0    5 
17/04/15   7:50   13.5   13.5   12.9    55    4.6  13.0   ENE   1.08  21.0     E   10.6   12.6    9.7  1016.5  0.00   0.0   0.017   0.000   24.8    37    9.1   24.2   7.22 1.1757    117    1    100.0    5 
17/04/15   7:55   13.6   13.6   13.6    54    4.4  15.0   ENE   1.25  27.0   ENE   10.2   12.6    9.3  1016.5  0.00   0.0   0.017   0.000   24.8    37    9.1   24.2   7.22 1.1757    117    1    100.0    5 
17/04/15   8:00   13.6   13.6   13.5    54    4.4  11.0    NE   0.92  23.0    NE   11.2   12.6   10.3  1016.6  0.00   0.0   0.017   0.000   24.9    37    9.2   24.3   7.21 1.1753    117    1    100.0    5 
17/04/15   8:05   13.9   13.9   13.6    54    4.8  12.0   ENE   1.00  22.0     E   11.3   13.0   10.4  1016.7  0.00   0.0   0.015   0.000   24.9    37    9.2   24.3   7.21 1.1754    117    1    100.0    5 
17/04/15   8:10   14.2   14.2   14.0    53    4.7  12.0   ENE   1.00  21.0   ENE   11.6   13.2   10.7  1016.7  0.00   0.0   0.014   0.000   24.9    38    9.6   24.4   7.31 1.1748    115    1    100.0    5 
17/04/15   8:15   14.1   14.2   14.1    54    4.9   8.0    NE   0.67  17.0    NE   12.9   13.1   12.0  1016.8  0.00   0.0   0.015   0.000   25.0    38    9.7   24.5   7.31 1.1746    117    1    100.0    5 
17/04/15   8:20   13.9   14.1   13.9    52    4.2  14.0   ENE   1.17  23.0   ENE   10.9   12.9    9.9  1016.8  0.00   0.0   0.015   0.000   25.1    38    9.7   24.6   7.31 1.1744    116    1    100.0    5 
17/04/15   8:25   13.7   13.9   13.7    53    4.3  12.0    NE   1.00  21.0     E   11.1   12.8   10.2  1016.9  0.00   0.0   0.016   0.000   25.2    38    9.8   24.7   7.30 1.1740    116    1    100.0    5 
17/04/15   8:30   13.6   13.7   13.6    54    4.5  10.0    NE   0.83  20.0    NE   11.6   12.7   10.7  1016.9  0.00   0.0   0.016   0.000   25.2    38    9.8   24.7   7.30 1.1740    116    1    100.0    5 
17/04/15   8:35   13.8   13.8   13.6    56    5.2  11.0   ENE   0.92  19.0    NE   11.6   13.0   10.7  1017.0  0.00   0.0   0.016   0.000   25.3    38    9.9   24.7   7.30 1.1735    117    1    100.0    5 
17/04/15   8:40   14.3   14.3   13.8    55    5.4  10.0   ENE   0.83  19.0   ENE   12.4   13.4   11.5  1017.1  0.00   0.0   0.014   0.000   25.3    38   10.0   24.8   7.30 1.1734    117    1    100.0    5 
17/04/15   8:45   14.5   14.5   14.3    55    5.6   8.0    NE   0.67  16.0   ENE   13.4   13.6   12.6  1017.2  0.00   0.0   0.013   0.000   25.3    38   10.0   24.8   7.30 1.1735    117    1    100.0    5 
17/04/15   8:50   14.5   14.6   14.5    53    5.0   9.0   ENE   0.75  14.0   ENE   13.0   13.5   12.0  1017.3  0.00   0.0   0.013   0.000   25.4    38   10.1   24.9   7.29 1.1731    117    1    100.0    5 
17/04/15   8:55   14.6   14.6   14.5    53    5.1  11.0    NE   0.92  22.0   ENE   12.3   13.6   11.3  1017.4  0.00   0.0   0.013   0.000   25.5    38   10.1   24.9   7.29 1.1730    117    1    100.0    5 
17/04/15   9:00   14.5   14.6   14.5    53    5.0  12.0   ENE   1.00  18.0   ENE   12.0   13.5   11.0  1017.6  0.00   0.0   0.013   0.000   25.6    38   10.2   24.9   7.29 1.1729    116    1    100.0    5 
17/04/15   9:05   14.4   14.5   14.4    54    5.2   8.0   ENE   0.67  16.0   ENE   13.3   13.4   12.4  1017.5  0.00   0.0   0.014   0.000   25.6    38   10.2   25.0   7.29 1.1726    116    1    100.0    5 
17/04/15   9:10   14.2   14.4   14.2    52    4.4  10.0   ENE   0.83  19.0   ENE   12.3   13.2   11.3  1017.6  0.00   0.0   0.014   0.000   25.7    38   10.3   25.1   7.29 1.1724    117    1    100.0    5 
17/04/15   9:15   14.1   14.2   14.1    53    4.7   8.0   ENE   0.67  16.0   ENE   13.0   13.2   12.1  1017.5  0.00   0.0   0.015   0.000   25.7    38   10.3   25.2   7.28 1.1720    117    1    100.0    5 
17/04/15   9:20   14.1   14.1   14.1    53    4.6  10.0     E   0.83  19.0     E   12.1   13.1   11.2  1017.5  0.00   0.0   0.015   0.000   25.8    38   10.4   25.2   7.28 1.1717    115    1    100.0    5 
17/04/15   9:25   14.1   14.1   14.1    52    4.3  11.0   ENE   0.92  17.0   ESE   11.8   13.1   10.8  1017.4  0.00   0.0   0.015   0.000   25.8    38   10.4   25.3   7.28 1.1714    116    1    100.0    5 
17/04/15   9:30   14.1   14.1   14.1    53    4.7   8.0   ENE   0.67  15.0     E   13.0   13.2   12.1  1017.5  0.00   0.0   0.015   0.000   25.8    38   10.4   25.3   7.28 1.1715    117    1    100.0    5 
17/04/15   9:35   14.3   14.3   14.1    52    4.5   9.0   ENE   0.75  15.0   ENE   12.7   13.3   11.7  1017.6  0.00   0.0   0.014   0.000   25.9    38   10.5   25.3   7.28 1.1713    117    1    100.0    5 
17/04/15   9:40   14.5   14.5   14.3    51    4.5   8.0   ENE   0.67  17.0   ENE   13.4   13.4   12.4  1017.6  0.00   0.0   0.013   0.000   25.9    38   10.5   25.4   7.28 1.1711    117    1    100.0    5 
17/04/15   9:45   14.7   14.7   14.5    51    4.6  10.0   ENE   0.83  16.0    NE   12.8   13.6   11.8  1017.6  0.00   0.0   0.013   0.000   26.0    38   10.6   25.4   7.27 1.1708    116    1    100.0    5 
17/04/15   9:50   14.6   14.7   14.6    50    4.3  10.0   ENE   0.83  18.0     E   12.8   13.5   11.7  1017.6  0.00   0.0   0.013   0.000   26.0    38   10.6   25.4   7.27 1.1708    117    1    100.0    5 
17/04/15   9:55   14.7   14.7   14.6    51    4.6   9.0   ENE   0.75  17.0   ENE   13.2   13.6   12.2  1017.7  0.00   0.0   0.013   0.000   26.1    38   10.7   25.6   7.27 1.1704    117    1    100.0    5 
17/04/15  10:00   14.8   14.8   14.7    51    4.7   7.0    NE   0.58  21.0    NE   14.2   13.7   13.1  1017.8  0.00   0.0   0.012   0.000   26.1    38   10.7   25.6   7.27 1.1705    117    1    100.0    5 
17/04/15  10:05   14.6   14.7   14.6    50    4.3  10.0    NE   0.83  19.0     E   12.8   13.5   11.7  1017.9  0.00   0.0   0.013   0.000   26.2    37   10.3   25.6   7.17 1.1707    116    1    100.0    5 
17/04/15  10:10   14.8   14.8   14.6    51    4.7   9.0   ENE   0.75  16.0   ENE   13.3   13.7   12.3  1017.9  0.00   0.0   0.012   0.000   26.2    37   10.3   25.6   7.17 1.1707    118    1    100.0    5 
17/04/15  10:15   15.1   15.1   14.8    51    5.0   9.0   ENE   0.75  18.0     E   13.7   14.0   12.6  1017.9  0.00   0.0   0.011   0.000   26.2    37   10.4   25.6   7.17 1.1705    117    1    100.0    5 
17/04/15  10:20   15.4   15.4   15.1    49    4.7  11.0   ENE   0.92  23.0   ESE   13.3   14.2   12.2  1017.9  0.00   0.0   0.010   0.000   26.3    37   10.4   25.7   7.16 1.1702    115    1    100.0    5 
17/04/15  10:25   15.5   15.5   15.4    48    4.5  12.0   ENE   1.00  24.0   ENE   13.2   14.3   12.0  1018.0  0.00   0.0   0.010   0.000   26.3    37   10.5   25.7   7.16 1.1700    116    1    100.0    5 
17/04/15  10:30   15.3   15.5   15.3    48    4.3  12.0    NE   1.00  19.0   NNE   12.9   14.1   11.7  1017.9  0.00   0.0   0.011   0.000   26.3    37   10.5   25.7   7.16 1.1699    115    1    100.0    5 
17/04/15  10:35   15.3   15.3   15.2    50    4.9  11.0   ENE   0.92  19.0   ENE   13.2   14.2   12.1  1018.0  0.00   0.0   0.011   0.000   26.3    37   10.5   25.7   7.16 1.1700    116    1    100.0    5 
17/04/15  10:40   15.8   15.8   15.3    49    5.1  10.0    NE   0.83  22.0   ENE   14.2   14.7   13.1  1018.0  0.00   0.0   0.009   0.000   26.4    37   10.5   25.7   7.16 1.1698    116    1    100.0    5 
17/04/15  10:45   16.2   16.2   15.8    49    5.5  10.0    NE   0.83  18.0    NE   14.6   15.1   13.5  1017.9  0.00   0.0   0.007   0.000   26.5    37   10.6   25.8   7.16 1.1692    117    1    100.0    5 
17/04/15  10:50   16.3   16.3   16.2    48    5.3   8.0    NE   0.67  21.0   ENE   15.7   15.2   14.5  1018.0  0.00   0.0   0.007   0.000   26.5    37   10.6   25.8   7.16 1.1692    116    1    100.0    5 
17/04/15  10:55   16.5   16.5   16.3    44    4.2  11.0   ENE   0.92  21.0   ENE   14.6   15.2   13.3  1018.0  0.00   0.0   0.006   0.000   26.5    37   10.6   25.8   7.16 1.1693    117    1    100.0    5 
17/04/15  11:00   16.8   16.8   16.5    44    4.4   8.0   ENE   0.67  15.0     E   16.2   15.4   14.8  1018.1  0.00   0.0   0.005   0.000   26.6    37   10.7   25.9   7.15 1.1691    117    1    100.0    5 
17/04/15  11:05   17.0   17.0   16.8    46    5.3   9.0     E   0.75  15.0     E   15.9   15.8   14.7  1018.2  0.00   0.0   0.005   0.000   26.6    37   10.7   25.9   7.15 1.1692    117    1    100.0    5 
17/04/15  11:10   17.1   17.2   17.0    44    4.7   9.0   ENE   0.75  18.0   ENE   16.0   15.7   14.7  1018.2  0.00   0.0   0.004   0.000   26.6    37   10.7   25.9   7.15 1.1690    116    1    100.0    5 
17/04/15  11:15   16.8   17.1   16.8    48    5.7   5.0   ENE   0.42  15.0   ENE   16.8   15.6   15.6  1018.3  0.00   0.0   0.005   0.000   26.7    37   10.8   25.9   7.15 1.1687    118    1    100.0    5 
17/04/15  11:20   16.9   16.9   16.8    49    6.1  11.0   ENE   0.92  17.0   ENE   15.1   15.8   14.0  1018.3  0.00   0.0   0.005   0.000   26.7    37   10.8   25.9   7.15 1.1688    117    1    100.0    5 
17/04/15  11:25   17.2   17.2   16.9    50    6.7   8.0   NNE   0.67  17.0   ENE   16.7   16.2   15.7  1018.3  0.00   0.0   0.004   0.000   26.7    37   10.8   26.0   7.15 1.1686    117    1    100.0    5 
17/04/15  11:30   16.9   17.2   16.9    47    5.5  10.0    NE   0.83  17.0    NE   15.5   15.8   14.3  1018.4  0.00   0.0   0.005   0.000   26.7    37   10.8   26.0   7.15 1.1686    117    1    100.0    5 
17/04/15  11:35   16.8   16.9   16.8    46    5.1  10.0    NE   0.83  19.0   NNE   15.4   15.6   14.2  1018.5  0.00   0.0   0.005   0.000   26.8    37   10.9   26.1   7.15 1.1685    117    1    100.0    5 
17/04/15  11:40   17.1   17.1   16.8    45    5.0  10.0    NE   0.83  21.0   NNE   15.6   15.8   14.3  1018.5  0.00   0.0   0.004   0.000   26.8    37   10.9   26.1   7.14 1.1683    117    1    100.0    5 
17/04/15  11:45   17.3   17.3   17.1    44    5.0  11.0    NE   0.92  22.0   ENE   15.6   16.0   14.2  1018.6  0.00   0.0   0.003   0.000   26.8    37   10.9   26.1   7.14 1.1683    117    1    100.0    5 
17/04/15  11:50   17.6   17.6   17.3    45    5.5   9.0   ENE   0.75  16.0   ENE   16.6   16.3   15.4  1018.6  0.00   0.0   0.003   0.000   26.9    37   11.0   26.2   7.14 1.1680    117    1    100.0    5 
17/04/15  11:55   18.1   18.1   17.6    45    5.9   8.0   ENE   0.67  15.0     E   17.7   16.8   16.4  1018.6  0.00   0.0   0.001   0.000   26.9    37   11.0   26.2   7.14 1.1681    117    1    100.0    5 
17/04/15  12:00   18.0   18.2   18.0    44    5.6   8.0   NNE   0.67  18.0   NNE   17.6   16.7   16.3  1018.7  0.00   0.0   0.001   0.000   26.9    37   11.0   26.2   7.14 1.1679    117    1    100.0    5 
17/04/15  12:05   18.1   18.1   17.9    45    5.9   9.0   ENE   0.75  15.0    NE   17.2   16.8   16.0  1018.8  0.00   0.0   0.001   0.000   27.0    37   11.1   26.3   7.14 1.1677    117    1    100.0    5 
17/04/15  12:10   17.9   18.1   17.9    43    5.2   9.0    NE   0.75  22.0   NNE   17.1   16.6   15.8  1018.8  0.00   0.0   0.001   0.000   27.0    37   11.1   26.3   7.14 1.1677    117    1    100.0    5 
17/04/15  12:15   16.9   17.9   16.9    43    4.3  13.0   NNE   1.08  21.0   NNE   14.6   15.6   13.2  1018.7  0.00   0.0   0.005   0.000   27.1    36   10.7   26.3   6.92 1.1679    118    1    100.0    5 
17/04/15  12:20   16.3   16.9   16.3    45    4.3  12.0   NNE   1.00  19.0   NNE   14.0   15.0   12.7  1018.7  0.00   0.0   0.007   0.000   27.1    36   10.7   26.3   6.92 1.1679    116    1    100.0    5 
17/04/15  12:25   16.0   16.3   16.0    47    4.7  10.0   NNE   0.83  16.0   ENE   14.4   14.8   13.2  1018.9  0.00   0.0   0.008   0.000   27.1    36   10.8   26.3   6.92 1.1677    117    1    100.0    5 
17/04/15  12:30   16.1   16.1   16.0    47    4.7   7.0    NE   0.58  13.0   ENE   15.7   14.8   14.5  1018.9  0.00   0.0   0.008   0.000   27.1    36   10.8   26.3   6.92 1.1677    115    1    100.0    5 
17/04/15  12:35   16.2   16.2   16.1    47    4.9   8.0    NE   0.67  14.0    NE   15.5   15.0   14.3  1018.9  0.00   0.0   0.007   0.000   27.2    36   10.8   26.4   6.91 1.1675    117    1    100.0    5 
17/04/15  12:40   16.2   16.2   16.2    47    4.8   9.0    NE   0.75  15.0   ENE   15.0   14.9   13.8  1018.9  0.00   0.0   0.008   0.000   27.2    36   10.8   26.4   6.91 1.1675    116    1    100.0    5 
17/04/15  12:45   16.4   16.4   16.2    48    5.4   7.0    NE   0.58  12.0   ENE   16.2   15.3   15.1  1018.8  0.00   0.0   0.007   0.000   27.2    36   10.8   26.4   6.91 1.1672    117    1    100.0    5 
17/04/15  12:50   16.7   16.7   16.4    47    5.3  10.0    NE   0.83  18.0   ENE   15.2   15.6   14.1  1018.8  0.00   0.0   0.006   0.000   27.2    36   10.8   26.4   6.91 1.1672    117    1    100.0    5 
17/04/15  12:55   17.1   17.1   16.7    47    5.7  10.0    NE   0.83  21.0   ENE   15.7   15.9   14.6  1018.9  0.00   0.0   0.004   0.000   27.3    36   10.9   26.5   6.91 1.1670    116    1    100.0    5 
17/04/15  13:00   17.6   17.6   17.2    45    5.5  11.0   ENE   0.92  22.0   NNE   15.9   16.4   14.7  1018.8  0.00   0.0   0.003   0.000   27.3    36   10.9   26.6   6.90 1.1666    117    1    100.0    5 
17/04/15  13:05   17.4   17.6   17.4    45    5.3  11.0    NE   0.92  19.0     N   15.6   16.1   14.3  1018.8  0.00   0.0   0.003   0.000   27.4    36   11.0   26.7   6.90 1.1664    116    1    100.0    5 
17/04/15  13:10   17.3   17.4   17.3    45    5.2  12.0    NE   1.00  23.0     N   15.2   16.0   13.9  1018.9  0.00   0.0   0.004   0.000   27.4    36   11.0   26.7   6.89 1.1662    117    1    100.0    5 
17/04/15  13:15   17.3   17.3   17.3    47    5.9  10.0   NNE   0.83  17.0   NNE   15.9   16.2   14.8  1018.8  0.00   0.0   0.003   0.000   27.4    36   11.0   26.7   6.89 1.1660    117    1    100.0    5 
17/04/15  13:20   17.4   17.4   17.3    45    5.3  11.0    NE   0.92  20.0   NNE   15.6   16.1   14.3  1018.9  0.00   0.0   0.003   0.000   27.4    35   10.6   26.7   6.79 1.1667    118    1    100.0    5 
17/04/15  13:25   17.6   17.6   17.4    46    5.8   9.0   NNE   0.75  15.0   NNE   16.6   16.3   15.4  1018.9  0.00   0.0   0.003   0.000   27.5    36   11.1   26.8   6.89 1.1659    117    1    100.0    5 
17/04/15  13:30   17.6   17.6   17.5    47    6.2   9.0    NE   0.75  17.0    NE   16.7   16.4   15.5  1019.0  0.00   0.0   0.003   0.000   27.5    36   11.1   26.8   6.89 1.1661    116    1    100.0    5 
17/04/15  13:35   17.8   17.8   17.6    46    6.0   9.0   NNE   0.75  18.0    NE   16.9   16.6   15.7  1019.0  0.00   0.0   0.002   0.000   27.6    36   11.1   26.8   6.89 1.1658    117    1    100.0    5 
17/04/15  13:40   17.9   17.9   17.7    46    6.1   8.0    NE   0.67  17.0   NNE   17.4   16.7   16.3  1019.0  0.00   0.0   0.002   0.000   27.6    36   11.2   26.9   6.88 1.1656    117    1    100.0    5 
17/04/15  13:45   18.1   18.1   17.9    46    6.3   8.0    NE   0.67  16.0   ENE   17.7   16.9   16.5  1019.0  0.00   0.0   0.001   0.000   27.6    36   11.2   26.9   6.88 1.1655    117    1    100.0    5 
17/04/15  13:50   18.1   18.3   18.1    43    5.3  11.0   NNE   0.92  19.0    NE   16.4   16.7   15.1  1019.0  0.00   0.0   0.001   0.000   27.7    36   11.2   27.0   6.88 1.1652    117    1    100.0    5 
17/04/15  13:55   17.3   18.0   17.3    44    5.0  11.0    NE   0.92  20.0   NNE   15.6   16.0   14.2  1019.0  0.00   0.0   0.003   0.000   27.7    35   10.8   26.9   6.78 1.1657    117    1    100.0    5 
17/04/15  14:00   17.1   17.3   17.1    47    5.6  13.0   NNE   1.08  19.0   NNE   14.7   15.9   13.5  1019.0  0.00   0.0   0.004   0.000   27.7    35   10.9   27.0   6.77 1.1654    117    1    100.0    5 
17/04/15  14:05   17.2   17.2   17.1    47    5.8  11.0    NE   0.92  19.0   NNE   15.4   16.0   14.2  1019.1  0.00   0.0   0.004   0.000   27.7    35   10.9   27.0   6.77 1.1655    117    1    100.0    5 
17/04/15  14:10   17.6   17.6   17.2    45    5.5  10.0   NNE   0.83  17.0    NE   16.2   16.3   15.0  1019.0  0.00   0.0   0.003   0.000   27.8    35   10.9   27.1   6.77 1.1652    117    1    100.0    5 
17/04/15  14:15   17.6   17.6   17.5    46    5.8  10.0    NE   0.83  18.0    NE   16.2   16.3   15.0  1019.0  0.00   0.0   0.003   0.000   27.8    35   11.0   27.1   6.77 1.1649    117    1    100.0    5 
17/04/15  14:20   17.6   17.7   17.6    45    5.5  12.0    NE   1.00  21.0    NE   15.5   16.3   14.3  1019.1  0.00   0.0   0.003   0.000   27.8    35   11.0   27.1   6.77 1.1650    117    1    100.0    5 
17/04/15  14:25   17.6   17.7   17.6    44    5.2  12.0    NE   1.00  18.0    NE   15.5   16.3   14.2  1019.0  0.00   0.0   0.003   0.000   27.9    35   11.0   27.2   6.76 1.1646    117    1    100.0    5 
17/04/15  14:30   17.3   17.6   17.3    45    5.2  11.0    NE   0.92  21.0   NNE   15.5   16.0   14.2  1019.1  0.00   0.0   0.004   0.000   27.9    35   11.0   27.2   6.76 1.1647    117    1    100.0    5 
17/04/15  14:35   17.1   17.2   17.1    46    5.3  11.0   ENE   0.92  20.0   ENE   15.2   15.8   14.0  1019.1  0.00   0.0   0.004   0.000   27.9    35   11.0   27.2   6.76 1.1647    116    1    100.0    5 
17/04/15  14:40   17.1   17.1   17.0    47    5.7   8.0   ENE   0.67  18.0   ENE   16.6   15.9   15.4  1019.2  0.00   0.0   0.004   0.000   27.9    35   11.1   27.2   6.76 1.1646    117    1    100.0    5 
17/04/15  14:45   16.9   17.2   16.9    47    5.5  13.0   NNE   1.08  23.0    NE   14.4   15.7   13.3  1019.2  0.00   0.0   0.005   0.000   27.9    35   11.1   27.2   6.76 1.1646    116    1    100.0    5 
17/04/15  14:50   16.7   16.8   16.7    48    5.6  12.0   NNE   1.00  18.0    NE   14.4   15.5   13.3  1019.3  0.00   0.0   0.006   0.000   27.9    35   11.1   27.2   6.76 1.1647    116    1    100.0    5 
17/04/15  14:55   16.6   16.7   16.6    47    5.2  10.0    NE   0.83  23.0    NE   15.1   15.4   13.9  1019.2  0.00   0.0   0.006   0.000   27.9    35   11.1   27.2   6.76 1.1646    116    1    100.0    5 
17/04/15  15:00   16.2   16.6   16.2    48    5.2  11.0    NE   0.92  19.0   NNE   14.3   15.1   13.1  1019.4  0.00   0.0   0.007   0.000   28.0    35   11.1   27.3   6.75 1.1646    116    1    100.0    5 
17/04/15  15:05   16.3   16.3   16.2    48    5.3  11.0    NE   0.92  21.0    NE   14.4   15.2   13.2  1019.5  0.00   0.0   0.007   0.000   28.0    35   11.1   27.3   6.75 1.1646    117    1    100.0    5 
17/04/15  15:10   15.9   16.3   15.9    49    5.2  12.0    NE   1.00  20.0     N   13.6   14.7   12.4  1019.5  0.00   0.0   0.008   0.000   28.0    35   11.1   27.3   6.75 1.1647    116    1    100.0    5 
17/04/15  15:15   15.8   15.9   15.8    49    5.1  11.0    NE   0.92  19.0    NE   13.8   14.7   12.7  1019.5  0.00   0.0   0.009   0.000   28.0    35   11.1   27.3   6.75 1.1647    117    1    100.0    5 
17/04/15  15:20   16.0   16.0   15.8    48    5.0  11.0    NE   0.92  19.0   ENE   14.1   14.8   12.9  1019.5  0.00   0.0   0.008   0.000   28.0    35   11.1   27.3   6.75 1.1646    117    1    100.0    5 
17/04/15  15:25   15.8   16.0   15.8    47    4.5  11.0    NE   0.92  22.0    NE   13.8   14.6   12.6  1019.6  0.00   0.0   0.009   0.000   28.0    35   11.1   27.3   6.75 1.1648    118    1    100.0    5 
17/04/15  15:30   15.5   15.7   15.5    49    4.8  11.0    NE   0.92  22.0   NNE   13.4   14.3   12.3  1019.6  0.00   0.0   0.010   0.000   28.1    35   11.2   27.4   6.75 1.1645    117    1    100.0    5 
17/04/15  15:35   15.7   15.7   15.5    48    4.7   9.0    NE   0.75  20.0    NE   14.4   14.5   13.2  1019.5  0.00   0.0   0.009   0.000   28.1    35   11.2   27.4   6.75 1.1645    117    1    100.0    5 
17/04/15  15:40   16.1   16.1   15.7    47    4.8   9.0   ENE   0.75  17.0   NNE   14.9   14.9   13.7  1019.6  0.00   0.0   0.008   0.000   28.0    35   11.1   27.3   6.75 1.1648    117    1    100.0    5 
17/04/15  15:45   16.4   16.4   16.1    46    4.8   9.0   ENE   0.75  17.0     E   15.3   15.2   14.1  1019.6  0.00   0.0   0.007   0.000   28.1    35   11.2   27.4   6.75 1.1646    117    1    100.0    5 
17/04/15  15:50   16.7   16.7   16.4    46    5.0   8.0    NE   0.67  17.0   ENE   16.1   15.4   14.8  1019.7  0.00   0.0   0.006   0.000   28.1    35   11.2   27.4   6.75 1.1646    116    1    100.0    5 
17/04/15  15:55   15.9   16.7   15.9    48    4.9  13.0   NNE   1.08  21.0    NE   13.4   14.8   12.2  1019.8  0.00   0.0   0.008   0.000   28.1    35   11.2   27.4   6.75 1.1647    117    1    100.0    5 
17/04/15  16:00   15.3   15.9   15.3    49    4.7  11.0    NE   0.92  20.0   NNE   13.3   14.2   12.1  1019.8  0.00   0.0   0.010   0.000   28.1    35   11.2   27.4   6.75 1.1648    116    1    100.0    5 
17/04/15  16:05   15.2   15.3   15.2    49    4.5  12.0   NNE   1.00  22.0   NNE   12.8   14.0   11.6  1019.9  0.00   0.0   0.011   0.000   28.1    35   11.2   27.4   6.75 1.1649    117    1    100.0    5 
17/04/15  16:10   14.9   15.2   14.9    49    4.3  12.0    NE   1.00  22.0    NE   12.5   13.8   11.3  1019.8  0.00   0.0   0.012   0.000   28.1    35   11.2   27.4   6.75 1.1645    116    1    100.0    5 
17/04/15  16:15   15.1   15.1   14.9    50    4.7  11.0    NE   0.92  22.0   ENE   12.9   13.9   11.8  1020.0  0.00   0.0   0.011   0.000   28.1    35   11.2   27.4   6.75 1.1647    116    1    100.0    5 
17/04/15  16:20   15.1   15.1   15.1    50    4.7  11.0   ENE   0.92  21.0   ENE   12.9   13.9   11.8  1020.0  0.00   0.0   0.011   0.000   28.1    35   11.2   27.4   6.75 1.1647    117    1    100.0    5 
17/04/15  16:25   14.7   15.1   14.7    52    5.0  11.0    NE   0.92  20.0    NE   12.6   13.7   11.6  1020.1  0.00   0.0   0.013   0.000   28.1    35   11.2   27.4   6.75 1.1648    117    1    100.0    5 
17/04/15  16:30   14.4   14.7   14.4    52    4.6  12.0   NNE   1.00  20.0   NNE   11.9   13.4   10.9  1020.1  0.00   0.0   0.014   0.000   28.1    35   11.2   27.4   6.75 1.1648    118    1    100.0    5 
17/04/15  16:35   14.1   14.4   14.1    52    4.4  10.0    NE   0.83  21.0    NE   12.2   13.1   11.2  1020.2  0.00   0.0   0.015   0.000   28.1    34   10.8   27.3   6.55 1.1653    116    1    100.0    5 
17/04/15  16:40   14.1   14.2   14.1    52    4.4  10.0    NE   0.83  19.0    NE   12.2   13.1   11.2  1020.2  0.00   0.0   0.015   0.000   28.1    35   11.2   27.4   6.75 1.1649    117    1    100.0    5 
17/04/15  16:45   13.9   14.1   13.9    52    4.2  11.0    NE   0.92  19.0    NE   11.7   12.9   10.7  1020.4  0.00   0.0   0.015   0.000   28.1    35   11.2   27.4   6.75 1.1651    116    1    100.0    5 
17/04/15  16:50   13.7   13.9   13.7    53    4.3  12.0    NE   1.00  19.0    NE   11.1   12.7   10.1  1020.4  0.00   0.0   0.016   0.000   28.1    34   10.8   27.3   6.55 1.1656    116    1    100.0    5 
17/04/15  16:55   13.4   13.7   13.4    55    4.6   8.0    NE   0.67  15.0    NE   12.2   12.6   11.3  1020.6  0.00   0.0   0.017   0.000   28.1    35   11.2   27.4   6.75 1.1654    117    1    100.0    5 
17/04/15  17:00   12.9   13.4   12.9    56    4.4  10.0    NE   0.83  17.0   NNE   10.8   12.1   10.0  1020.6  0.00   0.0   0.019   0.000   28.1    35   11.2   27.4   6.75 1.1654    117    1    100.0    5 
17/04/15  17:05   12.5   12.9   12.5    58    4.5   9.0   NNE   0.75  16.0    NE   10.7   11.8    9.9  1020.7  0.00   0.0   0.020   0.000   28.1    35   11.2   27.4   6.75 1.1655    117    1    100.0    5 
17/04/15  17:10   12.1   12.4   12.1    60    4.5  10.0   NNE   0.83  17.0    NE    9.8   11.4    9.1  1020.7  0.00   0.0   0.022   0.000   28.2    36   11.7   27.6   6.84 1.1649    117    1    100.0    5 
17/04/15  17:15   11.8   12.1   11.8    60    4.3   9.0    NE   0.75  19.0    NE    9.9   11.2    9.3  1020.7  0.00   0.0   0.023   0.000   28.1    37   12.0   27.6   7.10 1.1647    116    1    100.0    5 
17/04/15  17:20   11.5   11.8   11.5    61    4.2  11.0   NNE   0.92  18.0    NE    8.8   10.9    8.3  1020.8  0.00   0.0   0.024   0.000   28.2    39   12.9   27.8   7.40 1.1636    116    1    100.0    5 
17/04/15  17:25   11.3   11.5   11.3    63    4.5   9.0    NE   0.75  20.0    NE    9.3   10.8    8.8  1020.9  0.00   0.0   0.024   0.000   28.2    39   12.9   27.8   7.40 1.1637    116    1    100.0    5 
17/04/15  17:30   11.2   11.3   11.2    64    4.6  10.0    NE   0.83  19.0   NNE    8.7   10.7    8.3  1020.9  0.00   0.0   0.025   0.000   28.2    38   12.5   27.8   7.25 1.1642    116    1    100.0    5 
17/04/15  17:35   11.1   11.2   11.1    65    4.7   9.0    NE   0.75  16.0    NE    8.9   10.6    8.5  1021.0  0.00   0.0   0.025   0.000   28.2    38   12.5   27.8   7.25 1.1643    116    1    100.0    5 
17/04/15  17:40   10.9   11.1   10.9    66    4.8   7.0    NE   0.58  13.0    NE    9.6   10.6    9.2  1021.1  0.00   0.0   0.026   0.000   28.2    37   12.1   27.7   7.10 1.1649    116    1    100.0    5 
17/04/15  17:45   10.8   10.9   10.8    67    4.9   9.0    NE   0.75  16.0   NNE    8.6   10.4    8.2  1021.2  0.00   0.0   0.026   0.000   28.2    37   12.1   27.7   7.10 1.1649    114    1    100.0    5 
17/04/15  17:50   10.6   10.8   10.6    67    4.7   9.0   NNE   0.75  17.0   ENE    8.4   10.3    8.1  1021.2  0.00   0.0   0.027   0.000   28.2    37   12.1   27.7   7.10 1.1649    116    1    100.0    5 
17/04/15  17:55   10.4   10.6   10.4    68    4.8  10.0    NE   0.83  18.0   NNE    7.9   10.1    7.6  1021.2  0.00   0.0   0.027   0.000   28.1    37   12.0   27.6   7.10 1.1652    117    1    100.0    5 
17/04/15  18:00   10.2   10.4   10.2    69    4.8  10.0   NNE   0.83  17.0    NE    7.7    9.9    7.4  1021.2  0.00   0.0   0.028   0.000   28.1    36   11.6   27.5   6.85 1.1657    116    1    100.0    5 
17/04/15  18:05   10.2   10.3   10.2    69    4.7   8.0    NE   0.67  15.0   ENE    8.3    9.9    8.0  1021.2  0.00   0.0   0.028   0.000   28.1    36   11.6   27.5   6.85 1.1657    116    1    100.0    5 
17/04/15  18:10   10.1   10.2   10.1    70    4.8  10.0    NE   0.83  17.0   NNE    7.4    9.8    7.2  1021.3  0.00   0.0   0.029   0.000   28.1    36   11.6   27.5   6.85 1.1658    116    1    100.0    5 
17/04/15  18:15    9.9   10.1    9.9    70    4.7   8.0    NE   0.67  17.0    NE    8.0    9.7    7.8  1021.3  0.00   0.0   0.029   0.000   28.1    36   11.6   27.5   6.85 1.1658    117    1    100.0    5 
17/04/15  18:20    9.9    9.9    9.9    71    4.9   8.0    NE   0.67  14.0   NNE    7.9    9.7    7.7  1021.5  0.00   0.0   0.029   0.000   28.1    36   11.6   27.4   6.85 1.1663    117    1    100.0    5 
17/04/15  18:25    9.8    9.9    9.8    71    4.8  10.0    NE   0.83  22.0   NNE    7.1    9.6    6.9  1021.5  0.00   0.0   0.030   0.000   28.1    36   11.6   27.4   6.85 1.1663    117    1    100.0    5 
17/04/15  18:30    9.7    9.8    9.7    72    4.9   9.0    NE   0.75  18.0   NNE    7.3    9.5    7.2  1021.7  0.00   0.0   0.030   0.000   28.0    36   11.5   27.4   6.85 1.1668    115    1    100.0    5 
17/04/15  18:35    9.6    9.7    9.6    73    5.0  10.0   NNE   0.83  18.0     N    6.9    9.4    6.8  1021.7  0.00   0.0   0.030   0.000   28.0    36   11.5   27.4   6.85 1.1668    117    1    100.0    5 
17/04/15  18:40    9.4    9.6    9.4    73    4.8   9.0   NNE   0.75  15.0   NNE    7.1    9.3    6.9  1021.8  0.00   0.0   0.031   0.000   28.0    36   11.5   27.4   6.85 1.1669    116    1    100.0    5 
17/04/15  18:45    9.3    9.4    9.3    74    4.9   8.0   NNE   0.67  13.0   NNE    7.3    9.2    7.1  1021.8  0.00   0.0   0.031   0.000   27.9    36   11.5   27.3   6.86 1.1672    117    1    100.0    5 
17/04/15  18:50    9.2    9.3    9.2    74    4.8   9.0    NE   0.75  14.0   ENE    6.8    9.1    6.6  1021.9  0.00   0.0   0.032   0.000   27.9    36   11.4   27.3   6.86 1.1675    117    1    100.0    5 
17/04/15  18:55    9.1    9.2    9.1    75    4.9   9.0    NE   0.75  21.0   ENE    6.7    8.9    6.5  1021.9  0.00   0.0   0.032   0.000   27.9    36   11.4   27.3   6.86 1.1676    116    1    100.0    5 
17/04/15  19:00    9.1    9.1    9.1    75    4.9   8.0    NE   0.67  19.0   ENE    6.9    8.9    6.8  1022.0  0.00   0.0   0.032   0.000   27.8    36   11.4   27.2   6.87 1.1679    116    1    100.0    5 
17/04/15  19:05    9.0    9.1    9.0    76    5.0   8.0    NE   0.67  16.0    NE    6.8    8.8    6.7  1022.0  0.00   0.0   0.032   0.000   27.8    36   11.4   27.2   6.87 1.1680    117    1    100.0    5 
17/04/15  19:10    8.9    9.0    8.9    76    4.9   9.0    NE   0.75  17.0    NE    6.4    8.8    6.3  1022.2  0.00   0.0   0.033   0.000   27.8    36   11.3   27.1   6.87 1.1684    117    1    100.0    5 
17/04/15  19:15    8.8    8.9    8.8    77    5.0   9.0    NE   0.75  16.0    NE    6.3    8.7    6.2  1022.2  0.00   0.0   0.033   0.000   27.8    36   11.3   27.1   6.87 1.1684    117    1    100.0    5 
17/04/15  19:20    8.8    8.8    8.8    77    5.0   8.0    NE   0.67  16.0   NNE    6.6    8.7    6.5  1022.3  0.00   0.0   0.033   0.000   27.7    36   11.3   27.1   6.87 1.1688    117    1    100.0    5 
17/04/15  19:25    8.7    8.8    8.7    77    4.9   8.0   NNE   0.67  18.0   NNE    6.5    8.6    6.4  1022.3  0.00   0.0   0.033   0.000   27.7    35   10.8   26.9   6.78 1.1695    116    1    100.0    5 
17/04/15  19:30    8.7    8.7    8.7    77    4.9   9.0   NNE   0.75  21.0    NE    6.1    8.6    6.0  1022.3  0.00   0.0   0.034   0.000   27.7    35   10.8   26.9   6.78 1.1695    115    1    100.0    5 
17/04/15  19:35    8.7    8.7    8.6    77    4.9   9.0   NNE   0.75  18.0   NNE    6.1    8.6    6.0  1022.4  0.00   0.0   0.034   0.000   27.7    35   10.8   26.9   6.78 1.1696    115    1    100.0    5 
17/04/15  19:40    8.6    8.7    8.6    77    4.8   9.0    NE   0.75  15.0   ENE    6.1    8.5    5.9  1022.4  0.00   0.0   0.034   0.000   27.6    35   10.8   26.8   6.78 1.1698    117    1    100.0    5 
17/04/15  19:45    8.6    8.6    8.6    77    4.8   9.0   NNE   0.75  19.0    NE    6.0    8.4    5.9  1022.5  0.00   0.0   0.034   0.000   27.6    35   10.7   26.8   6.79 1.1702    116    1    100.0    5 
17/04/15  19:50    8.5    8.6    8.5    78    4.9   7.0    NE   0.58  15.0   ENE    6.7    8.4    6.6  1022.6  0.00   0.0   0.034   0.000   27.6    35   10.7   26.8   6.79 1.1703    115    1    100.0    5 
17/04/15  19:55    8.5    8.5    8.5    78    4.9   9.0    NE   0.75  17.0   ENE    5.9    8.4    5.8  1022.7  0.00   0.0   0.034   0.000   27.5    35   10.7   26.7   6.79 1.1708    117    1    100.0    5 
17/04/15  20:00    8.4    8.5    8.4    78    4.8   8.0    NE   0.67  16.0   NNE    6.2    8.3    6.1  1022.8  0.00   0.0   0.034   0.000   27.5    35   10.7   26.7   6.79 1.1708    117    1    100.0    5 
17/04/15  20:05    8.4    8.4    8.4    78    4.8   8.0    NE   0.67  18.0   NNE    6.1    8.3    6.0  1022.8  0.00   0.0   0.035   0.000   27.4    35   10.6   26.7   6.79 1.1711    116    1    100.0    5 
17/04/15  20:10    8.3    8.4    8.3    78    4.7   8.0   NNE   0.67  17.0    NE    6.1    8.2    5.9  1022.8  0.00   0.0   0.035   0.000   27.4    35   10.6   26.7   6.79 1.1712    116    1    100.0    5 
17/04/15  20:15    8.3    8.4    8.3    78    4.7   8.0    NE   0.67  17.0    NE    6.1    8.2    5.9  1022.8  0.00   0.0   0.035   0.000   27.4    35   10.6   26.6   6.80 1.1714    117    1    100.0    5 
17/04/15  20:20    8.3    8.3    8.3    78    4.7   7.0    NE   0.58  15.0    NE    6.4    8.2    6.3  1022.9  0.00   0.0   0.035   0.000   27.4    35   10.6   26.6   6.80 1.1715    116    1    100.0    5 
17/04/15  20:25    8.3    8.3    8.3    78    4.7   8.0    NE   0.67  17.0   NNE    6.0    8.2    5.9  1023.0  0.00   0.0   0.035   0.000   27.3    35   10.5   26.5   6.80 1.1719    117    1    100.0    5 
17/04/15  20:30    8.2    8.3    8.2    78    4.6   7.0    NE   0.58  13.0    NE    6.3    8.1    6.2  1023.0  0.00   0.0   0.035   0.000   27.3    35   10.5   26.4   6.81 1.1722    117    1    100.0    5 
17/04/15  20:35    8.2    8.2    8.2    78    4.6   8.0    NE   0.67  15.0   ENE    5.9    8.0    5.7  1023.1  0.00   0.0   0.035   0.000   27.3    35   10.5   26.4   6.81 1.1723    115    1    100.0    5 
17/04/15  20:40    8.2    8.2    8.2    78    4.6   7.0    NE   0.58  17.0   NNE    6.2    8.0    6.1  1023.2  0.00   0.0   0.035   0.000   27.2    35   10.4   26.4   6.81 1.1726    116    1    100.0    5 
17/04/15  20:45    8.2    8.2    8.2    78    4.6   8.0    NE   0.67  15.0    NE    5.9    8.0    5.7  1023.1  0.00   0.0   0.035   0.000   27.2    35   10.4   26.3   6.81 1.1729    118    1    100.0    5 
17/04/15  20:50    8.1    8.2    8.1    78    4.5   6.0    NE   0.50  12.0   ENE    6.4    7.9    6.3  1023.3  0.00   0.0   0.035   0.000   27.2    35   10.4   26.3   6.81 1.1730    116    1    100.0    5 
17/04/15  20:55    8.1    8.1    8.1    78    4.4   7.0    NE   0.58  16.0    NE    6.1    7.9    5.9  1023.4  0.00   0.0   0.036   0.000   27.1    35   10.3   26.3   6.82 1.1734    117    1    100.0    5 
17/04/15  21:00    8.0    8.1    8.0    78    4.4   8.0    NE   0.67  16.0   NNE    5.7    7.8    5.5  1023.4  0.00   0.0   0.036   0.000   27.1    35   10.3   26.3   6.82 1.1734    117    1    100.0    5 
17/04/15  21:05    8.0    8.0    7.9    78    4.4   8.0    NE   0.67  16.0    NE    5.7    7.8    5.5  1023.4  0.00   0.0   0.036   0.000   27.1    35   10.3   26.2   6.82 1.1737    117    1    100.0    5 
17/04/15  21:10    7.9    8.0    7.9    78    4.3   9.0    NE   0.75  15.0    NE    5.3    7.8    5.1  1023.4  0.00   0.0   0.036   0.000   27.1    35   10.3   26.2   6.82 1.1737    117    1    100.0    5 
17/04/15  21:15    7.9    7.9    7.9    78    4.3   7.0    NE   0.58  14.0    NE    6.0    7.8    5.8  1023.4  0.00   0.0   0.036   0.000   27.0    35   10.2   26.2   6.83 1.1740    117    1    100.0    5 
17/04/15  21:20    7.9    7.9    7.9    78    4.3   9.0    NE   0.75  16.0     E    5.2    7.7    5.1  1023.4  0.00   0.0   0.036   0.000   26.9    35   10.2   26.1   6.83 1.1742    117    1    100.0    5 
17/04/15  21:25    7.8    7.9    7.8    78    4.2  10.0    NE   0.83  20.0    NE    4.8    7.7    4.7  1023.6  0.00   0.0   0.036   0.000   26.9    35   10.2   26.1   6.83 1.1744    115    1    100.0    5 
17/04/15  21:30    7.8    7.8    7.8    78    4.2  10.0    NE   0.83  18.0    NE    4.8    7.7    4.7  1023.6  0.00   0.0   0.036   0.000   26.9    35   10.1   26.1   6.83 1.1748    116    1    100.0    5 
17/04/15  21:35    7.8    7.8    7.8    78    4.2  10.0    NE   0.83  21.0    NE    4.8    7.6    4.6  1023.7  0.00   0.0   0.037   0.000   26.9    35   10.1   26.1   6.83 1.1749    116    1    100.0    5 
17/04/15  21:40    7.8    7.8    7.8    78    4.2   8.0    NE   0.67  18.0    NE    5.4    7.6    5.3  1023.7  0.00   0.0   0.037   0.000   26.8    35   10.1   26.0   6.84 1.1751    116    1    100.0    5 
17/04/15  21:45    7.8    7.8    7.7    78    4.2  11.0    NE   0.92  18.0   ENE    4.6    7.6    4.4  1023.9  0.00   0.0   0.037   0.000   26.8    35   10.0   25.9   6.84 1.1756    116    1    100.0    5 
17/04/15  21:50    7.7    7.8    7.7    78    4.1   9.0    NE   0.75  19.0   NNE    5.1    7.6    4.9  1023.9  0.00   0.0   0.037   0.000   26.8    35   10.0   25.9   6.84 1.1756    116    1    100.0    5 
17/04/15  21:55    7.7    7.7    7.7    78    4.1   7.0    NE   0.58  14.0    NE    5.7    7.6    5.6  1023.8  0.00   0.0   0.037   0.000   26.7    35   10.0   25.9   6.85 1.1758    115    1    100.0    5 
17/04/15  22:00    7.7    7.7    7.7    78    4.1   8.0    NE   0.67  17.0    NE    5.4    7.6    5.2  1023.9  0.00   0.0   0.037   0.000   26.7    35   10.0   25.9   6.85 1.1758    117    1    100.0    5 
17/04/15  22:05    7.7    7.7    7.7    78    4.1   8.0    NE   0.67  17.0   NNE    5.3    7.5    5.2  1023.9  0.00   0.0   0.037   0.000   26.7    35    9.9   25.8   6.85 1.1761    116    1    100.0    5 
17/04/15  22:10    7.6    7.7    7.6    78    4.0   8.0    NE   0.67  14.0   ENE    5.2    7.4    5.1  1023.9  0.00   0.0   0.037   0.000   26.6    35    9.9   25.8   6.85 1.1764    115    1    100.0    5 
17/04/15  22:15    7.6    7.6    7.6    78    4.0   8.0    NE   0.67  18.0   ENE    5.2    7.4    5.0  1024.0  0.00   0.0   0.037   0.000   26.6    35    9.9   25.8   6.85 1.1765    115    1    100.0    5 
17/04/15  22:20    7.6    7.6    7.5    78    4.0   9.0    NE   0.75  17.0     E    4.8    7.4    4.7  1024.0  0.00   0.0   0.037   0.000   26.6    35    9.8   25.8   6.85 1.1768    115    1    100.0    5 
17/04/15  22:25    7.5    7.6    7.5    78    3.9   8.0    NE   0.67  20.0    NE    5.1    7.3    4.9  1024.1  0.00   0.0   0.038   0.000   26.5    35    9.8   25.7   6.86 1.1771    116    1    100.0    5 
17/04/15  22:30    7.4    7.5    7.4    77    3.7   9.0    NE   0.75  18.0   ENE    4.7    7.3    4.6  1024.0  0.00   0.0   0.038   0.000   26.5    35    9.8   25.7   6.86 1.1771    116    1    100.0    5 
17/04/15  22:35    7.4    7.5    7.4    77    3.7   9.0    NE   0.75  15.0    NE    4.7    7.3    4.6  1024.1  0.00   0.0   0.038   0.000   26.4    35    9.7   25.7   6.86 1.1775    116    1    100.0    5 
17/04/15  22:40    7.4    7.4    7.4    77    3.7   9.0    NE   0.75  17.0   ENE    4.7    7.3    4.6  1024.2  0.00   0.0   0.038   0.000   26.4    35    9.7   25.7   6.86 1.1778    116    1    100.0    5 
17/04/15  22:45    7.4    7.4    7.4    77    3.6   8.0    NE   0.67  18.0   ENE    5.0    7.2    4.8  1024.3  0.00   0.0   0.038   0.000   26.4    35    9.7   25.7   6.86 1.1779    116    1    100.0    5 
17/04/15  22:50    7.4    7.4    7.4    77    3.6  10.0    NE   0.83  17.0   NNE    4.3    7.2    4.2  1024.3  0.00   0.0   0.038   0.000   26.3    35    9.6   25.6   6.86 1.1782    115    1    100.0    5 
17/04/15  22:55    7.3    7.4    7.3    77    3.6   8.0   ENE   0.67  14.0   ENE    4.9    7.2    4.7  1024.3  0.00   0.0   0.038   0.000   26.3    35    9.6   25.6   6.86 1.1782    116    1    100.0    5 
17/04/15  23:00    7.3    7.3    7.3    76    3.4   8.0    NE   0.67  15.0   ENE    4.9    7.1    4.7  1024.3  0.00   0.0   0.038   0.000   26.3    35    9.6   25.6   6.86 1.1784    116    1    100.0    5 
17/04/15  23:05    7.2    7.3    7.2    76    3.3   8.0    NE   0.67  16.0   ENE    4.8    7.0    4.6  1024.4  0.00   0.0   0.039   0.000   26.2    35    9.5   25.5   6.87 1.1788    117    1    100.0    5 
17/04/15  23:10    7.2    7.2    7.2    76    3.2   7.0    NE   0.58  14.0    NE    5.1    6.9    4.8  1024.3  0.00   0.0   0.039   0.000   26.2    35    9.5   25.5   6.87 1.1787    117    1    100.0    5 
17/04/15  23:15    7.2    7.2    7.2    77    3.4   8.0    NE   0.67  18.0   ENE    4.7    7.0    4.6  1024.2  0.00   0.0   0.039   0.000   26.2    35    9.5   25.5   6.87 1.1789    115    1    100.0    5 
17/04/15  23:20    7.1    7.2    7.1    77    3.3   7.0   NNE   0.58  16.0   NNE    5.0    6.9    4.8  1024.3  0.00   0.0   0.039   0.000   26.2    35    9.5   25.5   6.87 1.1789    117    1    100.0    5 
17/04/15  23:25    7.0    7.1    7.0    77    3.2   8.0   NNE   0.67  15.0   ENE    4.5    6.8    4.3  1024.3  0.00   0.0   0.039   0.000   26.1    35    9.4   25.4   6.87 1.1792    116    1    100.0    5 
17/04/15  23:30    7.0    7.1    7.0    77    3.2   6.0    NE   0.50  12.0    NE    5.1    6.8    4.9  1024.3  0.00   0.0   0.039   0.000   26.1    35    9.4   25.4   6.87 1.1794    117    1    100.0    5 
17/04/15  23:35    7.0    7.0    7.0    77    3.2   8.0    NE   0.67  17.0   ENE    4.5    6.8    4.3  1024.4  0.00   0.0   0.039   0.000   26.0    35    9.3   25.3   6.87 1.1799    117    1    100.0    5 
17/04/15  23:40    6.9    7.0    6.9    77    3.2   8.0    NE   0.67  17.0   ENE    4.4    6.8    4.3  1024.3  0.00   0.0   0.040   0.000   26.0    35    9.3   25.3   6.87 1.1797    117    1    100.0    5 
17/04/15  23:45    6.9    6.9    6.9    77    3.1   9.0    NE   0.75  15.0   ENE    4.1    6.7    3.9  1024.3  0.00   0.0   0.040   0.000   25.9    35    9.3   25.3   6.88 1.1800    116    1    100.0    5 
17/04/15  23:50    6.8    6.9    6.8    77    3.1   6.0    NE   0.50  11.0   ENE    4.9    6.7    4.8  1024.3  0.00   0.0   0.040   0.000   25.9    35    9.3   25.3   6.88 1.1800    117    1    100.0    5 
17/04/15  23:55    6.8    6.8    6.8    77    3.1   7.0   NNE   0.58  15.0     N    4.7    6.7    4.5  1024.3  0.00   0.0   0.040   0.000   25.9    35    9.3   25.2   6.88 1.1803    116    1    100.0    5 
18/04/15  00:00    6.8    6.8    6.8    77    3.0   7.0    NE   0.58  13.0   ENE    4.6    6.6    4.4  1024.3  0.00   0.0   0.040   0.000   25.9    35    9.3   25.2   6.88 1.1802    116    1    100.0    5 
18/04/15   0:05    6.7    6.8    6.7    78    3.2   7.0    NE   0.58  15.0    NE    4.5    6.6    4.3  1024.4  0.00   0.0   0.040   0.000   25.8    35    9.2   25.2   6.88 1.1806    114    1    100.0    5 
18/04/15   0:10    6.7    6.7    6.7    78    3.1   6.0    NE   0.50  11.0    NE    4.7    6.5    4.6  1024.4  0.00   0.0   0.041   0.000   25.8    35    9.2   25.1   6.88 1.1809    116    1    100.0    5 
18/04/15   0:15    6.7    6.7    6.7    78    3.1   5.0    NE   0.42  14.0   NNE    5.1    6.5    4.9  1024.4  0.00   0.0   0.041   0.000   25.8    35    9.2   25.1   6.88 1.1809    116    1    100.0    5 
18/04/15   0:20    6.6    6.7    6.6    78    3.0   7.0    NE   0.58  15.0    NE    4.4    6.4    4.2  1024.4  0.00   0.0   0.041   0.000   25.7    35    9.1   25.0   6.88 1.1812    117    1    100.0    5 
18/04/15   0:25    6.6    6.6    6.6    78    3.0   6.0    NE   0.50  13.0    NE    4.6    6.4    4.4  1024.3  0.00   0.0   0.041   0.000   25.7    35    9.1   25.0   6.88 1.1811    117    1    100.0    5 
18/04/15   0:30    6.5    6.6    6.5    78    2.9   6.0    NE   0.50  12.0   NNE    4.5    6.3    4.3  1024.3  0.00   0.0   0.041   0.000   25.7    35    9.1   24.9   6.89 1.1813    116    1    100.0    5 
18/04/15   0:35    6.4    6.5    6.4    79    3.1   7.0    NE   0.58  17.0   ENE    4.2    6.3    4.0  1024.3  0.00   0.0   0.041   0.000   25.6    35    9.0   24.9   6.89 1.1816    116    1    100.0    5 
18/04/15   0:40    6.4    6.4    6.4    79    3.1   8.0    NE   0.67  14.0   NNE    3.8    6.3    3.7  1024.3  0.00   0.0   0.041   0.000   25.6    35    9.0   24.8   6.89 1.1819    116    1    100.0    5 
18/04/15   0:45    6.4    6.4    6.4    79    3.1   5.0   NNE   0.42  10.0    NE    4.8    6.3    4.7  1024.4  0.00   0.0   0.041   0.000   25.6    35    9.0   24.8   6.89 1.1819    117    1    100.0    5 
18/04/15   0:50    6.4    6.4    6.4    79    3.0   8.0   NNE   0.67  14.0    NE    3.8    6.2    3.6  1024.4  0.00   0.0   0.041   0.000   25.5    35    8.9   24.8   6.89 1.1822    115    1    100.0    5 
18/04/15   0:55    6.3    6.4    6.3    79    3.0   6.0   NNE   0.50  15.0    NE    4.3    6.2    4.2  1024.4  0.00   0.0   0.042   0.000   25.4    35    8.9   24.8   6.89 1.1825    116    1    100.0    5 
18/04/15   1:00    6.3    6.3    6.3    79    2.9   7.0    NE   0.58  13.0     E    4.0    6.1    3.8  1024.4  0.00   0.0   0.042   0.000   25.4    35    8.9   24.8   6.89 1.1825    116    1    100.0    5 
18/04/15   1:05    6.3    6.3    6.3    79    2.9   7.0    NE   0.58  15.0   ENE    4.0    6.1    3.8  1024.5  0.00   0.0   0.042   0.000   25.4    35    8.8   24.7   6.90 1.1829    117    1    100.0    5 
18/04/15   1:10    6.3    6.3    6.3    79    2.9   6.0    NE   0.50  13.0   NNE    4.3    6.1    4.1  1024.5  0.00   0.0   0.042   0.000   25.3    35    8.8   24.7   6.90 1.1832    115    1    100.0    5 
18/04/15   1:15    6.3    6.3    6.3    79    2.9   6.0    NE   0.50  11.0   ENE    4.3    6.1    4.1  1024.6  0.00   0.0   0.042   0.000   25.3    35    8.8   24.7   6.90 1.1833    116    1    100.0    5 
18/04/15   1:20    6.3    6.3    6.3    80    3.1   7.0    NE   0.58  16.0    NE    4.0    6.1    3.8  1024.6  0.00   0.0   0.042   0.000   25.3    35    8.7   24.6   6.90 1.1836    116    1    100.0    5 
18/04/15   1:25    6.3    6.3    6.3    80    3.1   8.0    NE   0.67  14.0   ENE    3.7    6.1    3.5  1024.7  0.00   0.0   0.042   0.000   25.3    35    8.7   24.6   6.90 1.1836    117    1    100.0    5 
18/04/15   1:30    6.3    6.3    6.3    80    3.1   6.0   ENE   0.50  14.0   ENE    4.3    6.1    4.1  1024.8  0.00   0.0   0.042   0.000   25.2    35    8.7   24.6   6.90 1.1840    116    1    100.0    5 
18/04/15   1:35    6.3    6.3    6.3    80    3.1   6.0    NE   0.50  12.0   ENE    4.3    6.1    4.1  1024.8  0.00   0.0   0.042   0.000   25.2    35    8.6   24.6   6.90 1.1843    114    1    100.0    5 
18/04/15   1:40    6.3    6.3    6.2    80    3.1   6.0   ENE   0.50  13.0    NE    4.3    6.1    4.1  1024.9  0.00   0.0   0.042   0.000   25.2    35    8.6   24.6   6.90 1.1844    116    1    100.0    5 
18/04/15   1:45    6.3    6.3    6.3    80    3.1   5.0    NE   0.42  13.0    NE    4.7    6.1    4.5  1024.9  0.00   0.0   0.042   0.000   25.1    35    8.6   24.5   6.91 1.1846    115    1    100.0    5 
18/04/15   1:50    6.3    6.3    6.3    80    3.1   5.0   ENE   0.42  11.0    NE    4.7    6.2    4.6  1024.9  0.00   0.0   0.042   0.000   25.1    35    8.5   24.5   6.91 1.1849    116    1    100.0    5 
18/04/15   1:55    6.3    6.3    6.3    80    3.1   5.0    NE   0.42  10.0    NE    4.7    6.2    4.6  1024.8  0.00   0.0   0.042   0.000   25.1    35    8.5   24.5   6.91 1.1849    115    1    100.0    5 
18/04/15   2:00    6.4    6.4    6.3    80    3.2   7.0    NE   0.58  12.0   ENE    4.1    6.3    4.0  1024.8  0.00   0.0   0.041   0.000   25.0    35    8.5   24.4   6.91 1.1851    116    1    100.0    5 
18/04/15   2:05    6.4    6.4    6.4    80    3.2   6.0   ENE   0.50  11.0   NNE    4.4    6.3    4.3  1024.8  0.00   0.0   0.041   0.000   25.0    35    8.5   24.4   6.91 1.1851    116    1    100.0    5 
18/04/15   2:10    6.4    6.4    6.4    80    3.2   7.0    NE   0.58  14.0   ENE    4.1    6.3    4.0  1024.7  0.00   0.0   0.041   0.000   24.9    35    8.4   24.4   6.91 1.1852    117    1    100.0    5 
18/04/15   2:15    6.3    6.4    6.3    80    3.1   6.0    NE   0.50  11.0   NNE    4.3    6.2    4.2  1024.7  0.00   0.0   0.042   0.000   24.9    35    8.4   24.3   6.91 1.1855    117    1    100.0    5 
18/04/15   2:20    6.2    6.3    6.2    80    3.0   6.0    NE   0.50  12.0   ENE    4.2    6.1    4.0  1024.6  0.00   0.0   0.042   0.000   24.9    35    8.4   24.3   6.91 1.1854    116    1    100.0    5 
18/04/15   2:25    6.2    6.3    6.2    80    3.0   5.0    NE   0.42  12.0   ENE    4.5    6.0    4.3  1024.6  0.00   0.0   0.042   0.000   24.8    35    8.3   24.2   6.92 1.1856    116    1    100.0    5 
18/04/15   2:30    6.1    6.2    6.1    80    2.9   7.0    NE   0.58  14.0    NE    3.8    5.9    3.6  1024.5  0.00   0.0   0.042   0.000   24.8    35    8.3   24.2   6.92 1.1858    118    1    100.0    5 
18/04/15   2:35    6.1    6.1    6.1    80    2.9   7.0    NE   0.58  13.0   ENE    3.7    5.9    3.6  1024.6  0.00   0.0   0.043   0.000   24.8    35    8.3   24.2   6.92 1.1859    113    1     99.1    5 
18/04/15   2:40    6.0    6.1    6.0    80    2.8   7.0    NE   0.58  15.0   NNE    3.6    5.8    3.4  1024.5  0.00   0.0   0.043   0.000   24.7    35    8.2   24.1   6.92 1.1860    116    1    100.0    5 
18/04/15   2:45    5.9    6.0    5.9    81    2.9   7.0    NE   0.58  13.0    NE    3.6    5.8    3.4  1024.5  0.00   0.0   0.043   0.000   24.7    35    8.2   24.1   6.92 1.1860    117    1    100.0    5 
18/04/15   2:50    5.9    5.9    5.9    81    2.9   8.0    NE   0.67  13.0   NNE    3.2    5.7    3.0  1024.4  0.00   0.0   0.043   0.000   24.7    35    8.2   24.1   6.92 1.1862    116    1    100.0    5 
18/04/15   2:55    5.8    5.9    5.8    81    2.8   6.0   NNE   0.50  11.0   ENE    3.7    5.7    3.6  1024.4  0.00   0.0   0.043   0.000   24.6    35    8.1   24.0   6.92 1.1865    115    1    100.0    5 
18/04/15   3:00    5.8    5.8    5.8    81    2.8   7.0   NNE   0.58  14.0   NNE    3.4    5.7    3.3  1024.4  0.00   0.0   0.043   0.000   24.6    35    8.1   24.0   6.92 1.1865    116    1    100.0    5 
18/04/15   3:05    5.8    5.8    5.8    82    2.9   8.0   NNE   0.67  14.0    NE    3.1    5.7    2.9  1024.5  0.00   0.0   0.044   0.000   24.6    35    8.1   23.9   6.93 1.1868    114    1    100.0    5 
18/04/15   3:10    5.8    5.8    5.8    82    2.9   6.0   NNE   0.50  11.0   ENE    3.7    5.7    3.6  1024.4  0.00   0.0   0.044   0.000   24.6    35    8.1   23.9   6.93 1.1868    115    1    100.0    5 
18/04/15   3:15    5.7    5.8    5.7    82    2.9   8.0   NNE   0.67  12.0   NNE    3.0    5.6    2.9  1024.4  0.00   0.0   0.044   0.000   24.5    35    8.0   23.8   6.93 1.1870    115    1    100.0    5 
18/04/15   3:20    5.7    5.7    5.7    82    2.9   7.0   NNE   0.58  13.0   NNE    3.3    5.6    3.2  1024.4  0.00   0.0   0.044   0.000   24.4    35    8.0   23.8   6.93 1.1872    116    1    100.0    5 
18/04/15   3:25    5.8    5.8    5.7    82    2.9   8.0   NNE   0.67  15.0   NNE    3.1    5.7    2.9  1024.4  0.00   0.0   0.044   0.000   24.4    35    8.0   23.8   6.93 1.1872    117    1    100.0    5 
18/04/15   3:30    5.8    5.8    5.7    82    2.9   8.0   NNE   0.67  15.0   NNE    3.1    5.7    2.9  1024.4  0.00   0.0   0.044   0.000   24.4    35    7.9   23.7   6.93 1.1875    117    1    100.0    5 
18/04/15   3:35    5.7    5.8    5.7    83    3.1   8.0   NNE   0.67  15.0    NE    3.0    5.6    2.9  1024.5  0.00   0.0   0.044   0.000   24.3    35    7.9   23.7   6.93 1.1879    116    1    100.0    5 
18/04/15   3:40    5.7    5.7    5.7    83    3.1   9.0   NNE   0.75  17.0    NE    2.7    5.6    2.6  1024.5  0.00   0.0   0.044   0.000   24.3    35    7.8   23.6   6.94 1.1882    117    1    100.0    5 
69012